• Join FlightAware (Why Join?)
  • Login
  • US Flag 
07:02PM EDT


 

Airport Tracker/Info


-or-


 

Live Flight TrackerFlight Track Log ✈ PDT4155 ✈ 01-Oct-2013 ✈ KBGM - KPHL

Flight Track Log - Related Links

Times and Time Zones

All times are in EDT time to prevent confusion due to time zone crossing. See the PDT4155 flight status page for this flight to view local times or setup timezone preferences in your user account.

Time Position Orientation Groundspeed Altitude Reporting Facility
EDT Latitude Longitude Course Direction KTS MPH feet Rate Location/Type
07:05AM 42.0348 -75.9228 180° South  Level Estimated
07:06AM 41.9753 -75.9250 182° South  Level FlightAware Approximate
07:07AM 41.9158 -75.9272 182° South  Level FlightAware Approximate
07:08AM 41.8581 -75.9072 154° Southeast  Level Estimated
07:09AM 41.8004 -75.8873 160° South  Level Estimated
07:10AM 41.7411 -75.8800 175° South  Level FlightAware Approximate
07:11AM 41.6835 -75.8597 159° South  Level Estimated
07:12AM 41.6257 -75.8409 166° South  Level FlightAware Approximate
07:13AM 41.5681 -75.8206 153° Southeast  Level Estimated
07:14AM 41.5105 -75.8004 161° South  Level Estimated
07:15AM 41.4545 -75.7734 160° South  Level FlightAware Approximate
07:16AM 41.3984 -75.7465 160° South  Level FlightAware Approximate
07:17AM 41.3407 -75.7269 162° South  Level Estimated
07:18AM 41.2846 -75.7004 160° South  Level FlightAware Approximate
07:19AM 41.2285 -75.6739 160° South  Level FlightAware Approximate
07:20AM 41.1724 -75.6475 160° South  Level FlightAware Approximate
07:21AM 41.1162 -75.6211 161° South  Level FlightAware Approximate
07:22AM 41.0582 -75.6031 163° South  Level Estimated
07:23AM 41.0018 -75.5777 161° South  Level FlightAware Approximate
07:24AM 40.9454 -75.5524 161° South  Level FlightAware Approximate
07:25AM 40.8890 -75.5270 161° South  Level FlightAware Approximate
07:26AM 40.8326 -75.5018 161° South  Level FlightAware Approximate
07:27AM 40.7743 -75.4857 190° South  Level Estimated
07:28AM 40.7148 -75.4888 182° South  Level FlightAware Approximate
07:29AM 40.6553 -75.4919 182° South  Level FlightAware Approximate
07:29AM 40.6333 -75.5333 198° South 240 276 6,000  Level Philadelphia TRACON
07:29AM 40.5833 -75.5333 180° South 242 278 5,500 -660 Descending Philadelphia TRACON
07:30AM 40.5958 -75.4950 182° South  Level FlightAware Approximate
07:30AM 40.5167 -75.5333 180° South 262 302 5,000  Level Philadelphia TRACON
07:31AM 40.5383 -75.4746 187° South  Level Estimated
07:31AM 40.4500 -75.4833 150° Southeast 247 284 5,000  Level Philadelphia TRACON
07:32AM 40.4808 -75.4543 190° South  Level Estimated
07:32AM 40.3833 -75.4333 150° Southeast 243 280 5,000  Level Philadelphia TRACON
07:33AM 40.4197 -75.4797 198° South  Level FlightAware Approximate
07:33AM 40.3333 -75.3833 143° Southeast 241 277 5,000  Level Philadelphia TRACON
07:34AM 40.3585 -75.5051 198° South  Level FlightAware Approximate
07:34AM 40.2833 -75.3333 143° Southeast 242 278 4,800  Level Philadelphia TRACON
07:35AM 40.2167 -75.3000 159° South 266 306 4,000 -420 Descending Philadelphia TRACON
07:36AM 40.1333 -75.2667 163° South 246 283 4,000  Level Philadelphia TRACON
07:37AM 40.0833 -75.2333 153° Southeast 241 277 4,000  Level Philadelphia TRACON
07:38AM 40.0167 -75.2000 159° South 235 270 4,000  Level Philadelphia TRACON
07:39AM 39.9667 -75.1667 153° Southeast 215 247 4,000 -300 Level Philadelphia TRACON
07:40AM 39.9167 -75.1333 153° Southeast 222 255 3,500 -540 Descending Philadelphia TRACON
07:41AM 39.8500 -75.1167 169° South 214 246 3,000 -660 Descending Philadelphia TRACON
07:42AM 39.8000 -75.1333 194° South 198 228 2,200 -840 Descending Philadelphia TRACON
07:43AM 39.8000 -75.1833 270° West 172 198 1,400 -720 Descending Philadelphia TRACON
07:44AM 39.8333 -75.2167 322° Northwest 93 107 800 -660 Descending Philadelphia TRACON
07:45AM 39.8500 -75.2167 360° North 116 133 300 -720 Descending Philadelphia TRACON